Time;durP1;ratioP1;P1;durP2;ratioP2;P2;SDS_P1;SDS_P2;PMS_P1;PMS_P2;Temp;Humidity;BMP_temperature;BMP_pressure;BME280_temperature;BME280_humidity;BME280_pressure;Samples;Min_cycle;Max_cycle;Signal;HPM_P1;HPM_P2
2022/10/22 00:01:05;;;;;;;7.32;2.47;;;;;;;13.55;100.00;99116.78;5027072;28;20047;-73
2022/10/22 00:03:30;;;;;;;14.70;1.70;;;;;;;13.58;100.00;99110.66;5039592;28;20449;-74
2022/10/22 00:05:59;;;;;;;3.90;1.55;;;;;;;13.60;100.00;99122.16;5043578;28;20021;-74
2022/10/22 00:08:24;;;;;;;5.70;1.80;;;;;;;13.62;100.00;99122.63;5050616;28;20029;-73
2022/10/22 00:10:50;;;;;;;5.65;1.10;;;;;;;13.64;100.00;99134.13;5063150;28;20027;-74
2022/10/22 00:13:15;;;;;;;3.58;1.25;;;;;;;13.64;100.00;99130.53;5022397;28;20410;-73
2022/10/22 00:15:41;;;;;;;8.38;1.48;;;;;;;13.64;100.00;99147.03;5032753;28;20032;-73
2022/10/22 00:18:15;;;;;;;13.23;2.33;;;;;;;13.63;100.00;99148.97;5049287;28;20047;-74
2022/10/22 00:20:44;;;;;;;10.70;2.03;;;;;;;13.55;100.00;99149.75;5052024;28;20032;-74
2022/10/22 00:23:12;;;;;;;8.45;1.58;;;;;;;13.50;100.00;99149.91;5057568;28;20116;-75
2022/10/22 00:25:38;;;;;;;7.68;1.30;;;;;;;13.43;100.00;99151.16;5023481;28;20386;-75
2022/10/22 00:28:04;;;;;;;6.72;1.25;;;;;;;13.39;100.00;99141.94;5057225;28;20089;-73
2022/10/22 00:30:29;;;;;;;6.28;1.27;;;;;;;13.44;100.00;99161.00;5032222;28;20029;-74
2022/10/22 00:32:55;;;;;;;6.82;1.55;;;;;;;13.42;100.00;99160.53;5047610;28;20045;-74
2022/10/22 00:35:23;;;;;;;5.95;1.23;;;;;;;13.39;100.00;99158.41;5005693;28;20067;-73
2022/10/22 00:37:48;;;;;;;4.57;1.13;;;;;;;13.28;100.00;99154.28;5039966;28;20630;-73
2022/10/22 00:40:14;;;;;;;6.35;1.13;;;;;;;13.23;100.00;99170.91;5052639;28;20021;-73
2022/10/22 00:42:39;;;;;;;3.03;1.13;;;;;;;13.08;100.00;99178.41;5041346;28;20158;-72
2022/10/22 00:45:16;;;;;;;3.88;0.60;;;;;;;12.94;100.00;99174.91;5046676;28;20096;-72
2022/10/22 00:47:53;;;;;;;9.95;1.70;;;;;;;12.96;100.00;99169.91;5030594;28;20025;-73
2022/10/22 00:50:21;;;;;;;5.95;0.93;;;;;;;13.00;100.00;99184.63;5054665;28;20017;-72
2022/10/22 00:52:48;;;;;;;3.10;1.08;;;;;;;12.89;100.00;99184.09;5055373;28;20525;-73
2022/10/22 00:55:14;;;;;;;3.05;0.70;;;;;;;12.88;100.00;99192.63;5040686;28;20040;-74
2022/10/22 00:57:40;;;;;;;1.63;0.60;;;;;;;12.85;100.00;99195.97;5046801;28;20043;-73
2022/10/22 01:00:06;;;;;;;3.28;1.38;;;;;;;12.86;100.00;99201.13;5035760;28;20062;-71
2022/10/22 01:02:32;;;;;;;3.47;0.70;;;;;;;12.88;100.00;99207.16;5050012;28;20041;-73
2022/10/22 01:04:58;;;;;;;1.60;0.50;;;;;;;12.97;100.00;99218.19;5019335;28;20112;-74
2022/10/22 01:07:24;;;;;;;3.45;0.85;;;;;;;12.96;100.00;99216.56;5047637;28;20057;-73
2022/10/22 01:10:28;;;;;;;3.53;0.68;;;;;;;12.83;100.00;99209.19;5017122;28;20021;-72
2022/10/22 01:13:23;;;;;;;2.92;0.98;;;;;;;12.88;100.00;99220.88;5040546;28;20052;-73
2022/10/22 01:16:20;;;;;;;2.42;0.80;;;;;;;12.92;100.00;99237.50;5059115;28;20017;-72
2022/10/22 01:19:07;;;;;;;4.13;0.60;;;;;;;12.87;100.00;99234.91;5061902;28;20099;-74
2022/10/22 01:21:46;;;;;;;2.50;0.47;;;;;;;12.88;100.00;99259.28;5044747;28;20025;-75
2022/10/22 01:24:28;;;;;;;2.88;0.80;;;;;;;12.81;100.00;99236.13;5039405;28;20463;-74
2022/10/22 01:27:25;;;;;;;4.50;0.98;;;;;;;12.95;100.00;99252.53;5064116;28;20021;-72
2022/10/22 01:30:05;;;;;;;6.95;1.05;;;;;;;12.91;100.00;99264.13;5059725;28;20081;-76
2022/10/22 01:32:47;;;;;;;7.70;1.60;;;;;;;12.88;100.00;99261.22;5061335;28;20041;-73
2022/10/22 01:35:22;;;;;;;2.88;0.82;;;;;;;12.90;100.00;99272.69;5068609;28;20031;-72
2022/10/22 01:37:52;;;;;;;8.18;1.10;;;;;;;12.88;100.00;99267.50;5064598;28;20055;-74
2022/10/22 01:40:20;;;;;;;4.70;1.10;;;;;;;12.84;100.00;99284.91;5050842;28;20063;-73
2022/10/22 01:43:02;;;;;;;6.22;0.95;;;;;;;12.75;100.00;99282.88;5047843;28;20034;-73
2022/10/22 01:45:33;;;;;;;8.70;1.05;;;;;;;12.60;100.00;99291.47;5047159;28;20120;-73
2022/10/22 01:48:23;;;;;;;5.82;0.93;;;;;;;12.48;100.00;99288.41;5054521;28;20016;-72
2022/10/22 01:50:55;;;;;;;3.60;0.82;;;;;;;12.34;100.00;99300.19;5062163;28;20040;-74
2022/10/22 01:53:34;;;;;;;8.80;1.15;;;;;;;12.28;100.00;99295.13;5067831;28;20050;-73
2022/10/22 01:56:12;;;;;;;8.45;1.50;;;;;;;12.15;100.00;99296.72;5050214;28;20532;-77
2022/10/22 01:58:46;;;;;;;3.58;0.73;;;;;;;12.04;100.00;99307.88;5070078;28;20043;-73
2022/10/22 02:01:14;;;;;;;10.38;1.05;;;;;;;11.87;100.00;99296.69;5064760;28;20021;-73
2022/10/22 02:03:59;;;;;;;6.05;0.85;;;;;;;11.81;100.00;99295.97;5061873;28;20024;-74
2022/10/22 02:06:27;;;;;;;6.15;1.00;;;;;;;11.77;100.00;99314.13;5039662;28;20025;-75
2022/10/22 02:08:55;;;;;;;5.57;0.90;;;;;;;11.62;100.00;99311.66;5051389;28;20033;-76
2022/10/22 02:11:23;;;;;;;6.00;0.93;;;;;;;11.59;100.00;99317.72;5040281;28;20025;-75
2022/10/22 02:13:53;;;;;;;6.00;1.17;;;;;;;11.61;100.00;99323.69;5062510;28;20059;-75
2022/10/22 02:16:28;;;;;;;5.28;0.80;;;;;;;11.67;100.00;99331.53;5053180;28;20031;-74
2022/10/22 02:18:58;;;;;;;5.82;1.00;;;;;;;11.63;100.00;99346.94;5046364;28;20033;-74
2022/10/22 02:21:33;;;;;;;7.22;1.33;;;;;;;11.60;100.00;99339.31;5056821;28;20033;-74
2022/10/22 02:24:02;;;;;;;8.23;1.35;;;;;;;11.78;100.00;99356.00;5040304;28;20036;-74
2022/10/22 02:26:38;;;;;;;7.82;1.10;;;;;;;11.83;100.00;99339.50;5046529;28;20375;-74
2022/10/22 02:29:13;;;;;;;6.78;1.13;;;;;;;12.09;100.00;99360.97;5043582;28;20104;-74
2022/10/22 02:31:42;;;;;;;9.43;1.08;;;;;;;12.10;100.00;99351.66;5053306;28;20061;-74
2022/10/22 02:34:19;;;;;;;4.30;0.88;;;;;;;12.16;100.00;99353.19;5068228;28;20029;-73
2022/10/22 02:36:47;;;;;;;7.25;1.20;;;;;;;12.23;100.00;99375.53;5040591;28;20082;-73
2022/10/22 02:39:14;;;;;;;7.90;1.10;;;;;;;12.10;100.00;99371.63;5057971;28;20025;-74
2022/10/22 02:41:39;;;;;;;8.68;1.20;;;;;;;11.93;100.00;99369.50;5033310;28;20487;-73
2022/10/22 02:44:09;;;;;;;8.43;1.23;;;;;;;11.78;100.00;99375.19;5020737;28;20029;-75
2022/10/22 02:46:36;;;;;;;5.72;1.15;;;;;;;11.64;100.00;99384.19;5025498;28;20037;-74
2022/10/22 02:49:01;;;;;;;7.78;1.30;;;;;;;11.52;100.00;99370.13;5039630;28;20036;-73
2022/10/22 02:51:27;;;;;;;8.15;1.30;;;;;;;11.49;100.00;99376.19;5027432;28;20040;-73
2022/10/22 02:53:52;;;;;;;8.70;1.30;;;;;;;11.44;100.00;99365.34;5010825;28;20383;-74
2022/10/22 02:56:18;;;;;;;6.15;1.25;;;;;;;11.39;100.00;99373.59;5037158;28;20020;-74
2022/10/22 02:58:43;;;;;;;9.32;1.52;;;;;;;11.31;100.00;99373.16;5025145;28;20021;-73
2022/10/22 03:01:11;;;;;;;2.75;1.02;;;;;;;11.18;100.00;99371.19;5037289;28;20033;-73
2022/10/22 03:03:36;;;;;;;2.25;0.65;;;;;;;11.11;100.00;99368.00;5006104;28;20047;-74
2022/10/22 03:06:02;;;;;;;4.70;1.20;;;;;;;11.06;100.00;99379.03;5019093;28;20546;-74
2022/10/22 03:08:28;;;;;;;4.72;1.05;;;;;;;10.95;100.00;99370.13;5040601;28;20032;-74
2022/10/22 03:10:53;;;;;;;6.63;1.15;;;;;;;10.92;100.00;99381.66;5043271;28;20045;-74
2022/10/22 03:13:18;;;;;;;8.52;1.60;;;;;;;10.93;100.00;99395.03;5024639;28;20091;-74
2022/10/22 03:15:44;;;;;;;6.65;1.38;;;;;;;10.88;100.00;99403.31;5020205;28;20037;-77
2022/10/22 03:18:09;;;;;;;5.63;1.00;;;;;;;10.87;100.00;99403.63;5027936;28;20049;-76
2022/10/22 03:20:35;;;;;;;3.95;1.25;;;;;;;10.86;100.00;99402.78;5016919;28;20025;-76
2022/10/22 03:23:01;;;;;;;3.55;0.88;;;;;;;10.85;100.00;99403.09;5028684;28;20032;-75
2022/10/22 03:25:29;;;;;;;3.78;0.73;;;;;;;10.89;100.00;99404.94;5003220;28;20131;-77
2022/10/22 03:28:00;;;;;;;4.75;1.20;;;;;;;11.06;100.00;99409.13;5040544;28;20048;-77
2022/10/22 03:30:25;;;;;;;5.38;1.88;;;;;;;11.27;100.00;99412.38;5043299;28;20021;-77
2022/10/22 03:32:51;;;;;;;8.00;1.00;;;;;;;11.37;100.00;99408.69;5037035;28;20053;-75
2022/10/22 03:35:16;;;;;;;10.25;1.30;;;;;;;11.41;100.00;99415.22;5037758;28;20490;-76
2022/10/22 03:37:41;;;;;;;8.73;1.23;;;;;;;11.32;100.00;99406.84;5009172;28;20386;-76
2022/10/22 03:40:08;;;;;;;3.65;0.93;;;;;;;11.21;100.00;99417.09;5027145;28;20044;-75
2022/10/22 03:42:34;;;;;;;6.57;1.02;;;;;;;11.15;100.00;99413.63;5035179;28;20082;-75
2022/10/22 03:44:59;;;;;;;7.50;1.38;;;;;;;11.23;100.00;99425.00;5057564;28;20414;-75
2022/10/22 03:47:25;;;;;;;4.50;0.90;;;;;;;11.30;100.00;99429.03;5036689;28;20033;-76
2022/10/22 03:49:51;;;;;;;4.10;0.90;;;;;;;11.21;100.00;99432.72;5044644;28;20017;-75
2022/10/22 03:52:17;;;;;;;2.55;1.08;;;;;;;11.03;100.00;99437.88;5041456;28;20030;-75
2022/10/22 03:54:42;;;;;;;3.30;0.80;;;;;;;10.88;100.00;99438.88;5018638;28;20497;-75
2022/10/22 03:57:09;;;;;;;2.47;0.70;;;;;;;10.77;100.00;99445.56;5045446;28;20028;-75
2022/10/22 03:59:42;;;;;;;5.40;1.10;;;;;;;10.73;100.00;99448.09;5058692;28;20017;-75
2022/10/22 04:02:09;;;;;;;5.90;1.30;;;;;;;10.68;100.00;99452.78;5030926;28;20025;-73
2022/10/22 04:04:37;;;;;;;8.10;1.55;;;;;;;10.59;100.00;99447.16;5065343;28;20036;-75
2022/10/22 04:07:03;;;;;;;6.43;1.70;;;;;;;10.54;100.00;99442.56;5037403;28;20029;-73
2022/10/22 04:09:33;;;;;;;6.40;2.13;;;;;;;10.53;100.00;99451.84;5034715;28;20028;-74
2022/10/22 04:11:59;;;;;;;5.53;2.00;;;;;;;10.52;100.00;99450.22;5062257;28;20459;-74
2022/10/22 04:14:25;;;;;;;9.02;3.00;;;;;;;10.48;100.00;99460.09;5061281;28;20074;-75
2022/10/22 04:16:50;;;;;;;8.77;1.45;;;;;;;10.36;100.00;99456.94;5046972;28;20486;-75
2022/10/22 04:19:16;;;;;;;8.43;1.60;;;;;;;10.29;100.00;99463.53;5030704;28;20108;-75
2022/10/22 04:21:41;;;;;;;5.72;1.00;;;;;;;10.23;100.00;99464.66;5037767;28;20097;-75
2022/10/22 04:24:07;;;;;;;8.32;1.80;;;;;;;10.19;100.00;99469.09;5028824;28;20079;-76
2022/10/22 04:26:33;;;;;;;8.63;1.55;;;;;;;10.16;100.00;99469.63;5041074;28;20393;-78
2022/10/22 04:28:58;;;;;;;7.50;1.60;;;;;;;10.04;100.00;99456.34;5032078;28;20053;-77
2022/10/22 04:31:27;;;;;;;3.65;1.60;;;;;;;10.12;100.00;99483.06;5030463;28;20064;-76
2022/10/22 04:33:55;;;;;;;5.38;1.60;;;;;;;10.10;100.00;99479.00;5034787;28;20052;-76
2022/10/22 04:36:21;;;;;;;4.40;1.13;;;;;;;10.05;100.00;99479.84;5047766;28;20045;-78
2022/10/22 04:38:52;;;;;;;11.10;2.13;;;;;;;10.07;100.00;99477.63;5052306;28;20029;-75
2022/10/22 04:41:23;;;;;;;6.63;1.35;;;;;;;10.12;100.00;99491.28;5063789;28;20036;-76
2022/10/22 04:43:49;;;;;;;14.07;1.92;;;;;;;10.15;100.00;99495.34;5043549;28;20025;-76
2022/10/22 04:46:19;;;;;;;7.07;2.05;;;;;;;10.17;100.00;99493.13;5041951;28;20101;-78
2022/10/22 04:48:45;;;;;;;7.53;1.67;;;;;;;10.15;100.00;99495.34;5057682;28;20055;-79
2022/10/22 04:51:15;;;;;;;8.07;1.85;;;;;;;10.14;100.00;99493.72;5042168;28;20059;-77
2022/10/22 04:53:41;;;;;;;8.50;1.30;;;;;;;10.15;100.00;99498.09;5060667;28;20028;-77
2022/10/22 04:56:20;;;;;;;10.35;2.08;;;;;;;10.19;100.00;99501.88;5042529;28;20029;-77
2022/10/22 04:58:47;;;;;;;9.13;1.98;;;;;;;10.18;100.00;99508.44;5064956;28;20028;-77
2022/10/22 05:01:45;;;;;;;5.00;1.17;;;;;;;10.15;100.00;99509.00;5042901;28;20480;-75
2022/10/22 05:04:14;;;;;;;6.03;1.45;;;;;;;10.19;100.00;99511.97;5018299;28;20498;-77
2022/10/22 05:06:40;;;;;;;5.30;1.33;;;;;;;10.16;100.00;99515.28;5032422;28;20025;-76
2022/10/22 05:09:10;;;;;;;9.77;1.80;;;;;;;10.17;100.00;99515.00;5033900;28;20026;-77
2022/10/22 05:11:37;;;;;;;7.85;1.95;;;;;;;10.22;100.00;99522.31;5046866;28;20046;-78
2022/10/22 05:14:05;;;;;;;13.13;1.40;;;;;;;10.22;100.00;99531.34;5046949;28;20029;-76
2022/10/22 05:16:31;;;;;;;5.07;1.52;;;;;;;10.21;100.00;99531.66;5054421;28;20025;-76
2022/10/22 05:18:59;;;;;;;8.20;1.52;;;;;;;10.17;100.00;99536.84;5027420;28;20068;-77
2022/10/22 05:21:25;;;;;;;5.47;1.13;;;;;;;10.12;100.00;99545.91;5045300;28;20032;-76
2022/10/22 05:23:54;;;;;;;7.28;1.00;;;;;;;10.11;100.00;99543.47;5040033;28;20086;-77
2022/10/22 05:26:22;;;;;;;6.85;1.20;;;;;;;10.12;100.00;99545.09;5034709;28;20010;-76
2022/10/22 05:28:50;;;;;;;10.45;1.35;;;;;;;10.11;100.00;99549.72;5060230;28;20025;-76
2022/10/22 05:31:17;;;;;;;6.20;1.30;;;;;;;10.12;100.00;99556.84;5043488;28;20132;-77
2022/10/22 05:33:43;;;;;;;6.13;1.60;;;;;;;10.11;100.00;99554.38;5027308;28;20079;-76
2022/10/22 05:36:12;;;;;;;10.25;1.20;;;;;;;10.12;100.00;99561.50;5041517;28;20112;-76
2022/10/22 05:38:38;;;;;;;7.18;1.75;;;;;;;10.12;100.00;99556.84;5044459;28;20033;-76
2022/10/22 05:41:05;;;;;;;5.70;1.05;;;;;;;10.11;100.00;99560.66;5027184;28;20055;-77
2022/10/22 05:43:30;;;;;;;3.95;0.75;;;;;;;10.09;100.00;99562.03;5045842;28;20028;-77
2022/10/22 05:46:01;;;;;;;1.73;0.82;;;;;;;10.09;100.00;99573.78;5032115;28;20062;-76
2022/10/22 05:48:27;;;;;;;5.53;0.90;;;;;;;10.07;100.00;99564.25;5036212;28;20420;-77
2022/10/22 05:50:52;;;;;;;3.08;0.85;;;;;;;10.10;100.00;99577.34;5009752;28;20047;-77
2022/10/22 05:53:18;;;;;;;2.15;0.90;;;;;;;10.14;100.00;99572.94;5041050;28;20041;-76
2022/10/22 05:55:43;;;;;;;1.48;0.73;;;;;;;10.19;100.00;99578.38;5038738;28;20469;-76
2022/10/22 05:58:10;;;;;;;1.33;0.68;;;;;;;10.19;100.00;99583.00;5038688;28;20029;-74
2022/10/22 06:00:36;;;;;;;0.98;0.50;;;;;;;10.17;100.00;99579.75;5041528;28;20060;-77
2022/10/22 06:03:03;;;;;;;1.23;0.50;;;;;;;10.05;100.00;99571.91;5042128;28;20511;-77
2022/10/22 06:05:29;;;;;;;1.45;0.40;;;;;;;10.06;100.00;99590.75;5038415;28;20479;-76
2022/10/22 06:07:56;;;;;;;5.15;1.38;;;;;;;10.04;100.00;99598.41;5040621;28;20040;-75
2022/10/22 06:10:22;;;;;;;3.40;1.17;;;;;;;9.96;100.00;99593.56;5044543;28;20024;-76
2022/10/22 06:12:48;;;;;;;3.72;0.82;;;;;;;9.95;100.00;99600.91;5028230;28;20029;-77
2022/10/22 06:15:16;;;;;;;3.20;0.60;;;;;;;9.86;100.00;99602.59;5041922;28;20044;-77
2022/10/22 06:17:46;;;;;;;4.82;0.70;;;;;;;9.79;100.00;99610.28;5062985;28;20032;-77
2022/10/22 06:20:12;;;;;;;5.82;1.35;;;;;;;9.77;100.00;99620.69;5072444;28;20013;-75
2022/10/22 06:22:37;;;;;;;8.50;1.27;;;;;;;9.64;100.00;99610.34;5029405;28;20045;-77
2022/10/22 06:25:09;;;;;;;5.85;1.80;;;;;;;9.59;100.00;99612.03;5034595;28;20147;-77
2022/10/22 06:27:35;;;;;;;2.70;1.00;;;;;;;9.60;100.00;99621.81;5031499;28;20042;-76
2022/10/22 06:30:00;;;;;;;4.05;1.00;;;;;;;9.55;100.00;99621.88;5041032;28;20029;-76
2022/10/22 06:32:26;;;;;;;1.80;0.70;;;;;;;9.50;100.00;99624.59;5017759;28;20053;-77
2022/10/22 06:34:51;;;;;;;2.78;0.82;;;;;;;9.46;100.00;99626.25;5049893;28;20094;-77
2022/10/22 06:37:17;;;;;;;3.13;0.77;;;;;;;9.43;100.00;99637.72;5038510;28;20033;-78
2022/10/22 06:39:42;;;;;;;4.95;0.90;;;;;;;9.41;100.00;99637.19;5027640;28;20072;-75
2022/10/22 06:42:11;;;;;;;2.88;0.80;;;;;;;9.33;100.00;99637.75;5038290;28;20053;-75
2022/10/22 06:44:36;;;;;;;5.05;1.02;;;;;;;9.33;100.00;99637.75;5037740;28;20032;-76
2022/10/22 06:47:02;;;;;;;1.70;0.68;;;;;;;9.31;100.00;99640.75;5038725;28;20483;-79
2022/10/22 06:49:55;;;;;;;2.22;0.60;;;;;;;9.24;100.00;99649.25;5038381;28;20013;-75
2022/10/22 06:52:21;;;;;;;1.80;0.68;;;;;;;9.13;100.00;99633.97;5023387;28;20071;-76
2022/10/22 06:54:46;;;;;;;1.77;0.52;;;;;;;9.12;100.00;99635.06;5037005;28;20022;-77
2022/10/22 06:57:12;;;;;;;3.22;0.93;;;;;;;9.22;100.00;99647.88;5033094;28;20028;-76
2022/10/22 06:59:37;;;;;;;1.60;0.75;;;;;;;9.24;100.00;99662.88;5029675;28;20017;-77
2022/10/22 07:02:02;;;;;;;2.67;0.70;;;;;;;9.26;100.00;99652.50;5027514;28;20025;-75
2022/10/22 07:04:28;;;;;;;8.15;0.95;;;;;;;9.31;100.00;99662.59;5042161;28;20025;-76
2022/10/22 07:06:54;;;;;;;2.78;0.90;;;;;;;9.35;100.00;99669.13;5026218;28;20033;-78
2022/10/22 07:09:20;;;;;;;5.03;1.45;;;;;;;9.43;100.00;99676.75;5059378;28;20052;-77
2022/10/22 07:11:46;;;;;;;4.25;0.90;;;;;;;9.49;100.00;99685.75;5038594;28;20056;-76
2022/10/22 07:14:12;;;;;;;5.70;1.20;;;;;;;9.58;100.00;99683.28;5039126;28;20112;-76
2022/10/22 07:16:40;;;;;;;6.55;1.20;;;;;;;9.60;100.00;99687.34;5035328;28;20033;-76
2022/10/22 07:19:06;;;;;;;3.72;0.88;;;;;;;9.68;100.00;99693.31;5037659;28;20026;-75
2022/10/22 07:21:34;;;;;;;9.88;1.70;;;;;;;9.69;100.00;99684.03;5036864;28;20526;-77
2022/10/22 07:23:59;;;;;;;4.60;1.08;;;;;;;9.75;100.00;99693.84;5019736;28;20090;-77
2022/10/22 07:26:29;;;;;;;1.65;0.60;;;;;;;9.78;100.00;99699.59;5025933;28;20056;-78
2022/10/22 07:28:58;;;;;;;2.17;0.55;;;;;;;9.80;100.00;99704.78;5047159;28;20043;-76
2022/10/22 07:31:24;;;;;;;1.30;0.70;;;;;;;9.82;100.00;99705.28;5040517;28;20136;-78
2022/10/22 07:33:50;;;;;;;1.95;0.73;;;;;;;9.90;100.00;99718.38;5033594;28;20041;-79
2022/10/22 07:36:18;;;;;;;1.70;0.75;;;;;;;9.94;100.00;99710.44;5034427;28;20505;-79
2022/10/22 07:38:52;;;;;;;4.38;0.70;;;;;;;10.00;100.00;99719.44;5027576;28;20467;-78
2022/10/22 07:41:23;;;;;;;1.48;0.50;;;;;;;10.03;100.00;99710.69;5027369;28;20034;-78
2022/10/22 07:43:49;;;;;;;1.25;0.68;;;;;;;10.17;100.00;99733.56;5037839;28;20056;-77
2022/10/22 07:46:27;;;;;;;5.35;0.88;;;;;;;10.20;100.00;99722.06;5029316;28;20041;-78
2022/10/22 07:48:54;;;;;;;1.75;0.90;;;;;;;10.35;100.00;99728.59;5043008;28;20036;-78
2022/10/22 07:51:20;;;;;;;4.13;0.80;;;;;;;10.48;100.00;99723.34;5046539;28;20090;-78
2022/10/22 07:53:49;;;;;;;5.13;1.20;;;;;;;10.67;100.00;99740.97;5038368;28;20041;-78
2022/10/22 07:56:20;;;;;;;3.50;1.00;;;;;;;10.88;100.00;99753.44;5029309;28;20035;-83
2022/10/22 07:58:47;;;;;;;2.80;0.77;;;;;;;11.04;100.00;99750.56;5030652;28;20024;-77
2022/10/22 08:01:57;;;;;;;;;;;;;;;;;;;;;
2022/10/22 08:11:53;;;;;;;;;;;;;;;;;;;;;
2022/10/22 08:15:02;;;;;;;;;;;;;;;;;;;;;
2022/10/22 08:21:17;;;;;;;;;;;;;;;;;;;;;
2022/10/22 08:27:48;;;;;;;2.17;0.40;;;;;;;13.19;100.00;99777.38;4892813;29;20037;-77
2022/10/22 08:30:28;;;;;;;3.65;1.60;;;;;;;14.13;100.00;99799.34;4910887;29;20184;-77
2022/10/22 08:32:56;;;;;;;5.05;0.90;;;;;;;14.50;100.00;99794.78;4901803;29;20124;-76
2022/10/22 08:35:24;;;;;;;6.32;1.20;;;;;;;14.41;100.00;99797.44;4926835;28;20058;-76
2022/10/22 08:37:52;;;;;;;2.00;0.85;;;;;;;14.22;100.00;99799.47;4972262;28;20046;-76
2022/10/22 08:41:15;;;;;;;;;;;;;;;;;;;;;
2022/10/22 08:44:03;;;;;;;4.97;1.60;;;;;;;13.98;100.00;99810.66;4914926;29;20117;-78
2022/10/22 08:46:51;;;;;;;2.83;0.98;;;;;;;14.11;100.00;99815.38;4914280;29;20024;-76
2022/10/22 08:49:33;;;;;;;2.90;0.85;;;;;;;14.32;100.00;99810.25;5015089;28;20034;-76
2022/10/22 08:52:17;;;;;;;10.43;1.95;;;;;;;15.07;100.00;99824.66;5014375;28;20109;-77
2022/10/22 08:55:27;;;;;;;9.52;1.63;;;;;;;15.61;100.00;99826.66;5020601;28;20018;-77
2022/10/22 08:58:23;;;;;;;7.82;1.40;;;;;;;16.06;100.00;99834.88;5007102;28;20026;-76
2022/10/22 09:01:18;;;;;;;6.38;1.60;;;;;;;16.37;100.00;99839.56;5017719;28;20026;-77
2022/10/22 09:04:04;;;;;;;11.65;1.70;;;;;;;16.69;100.00;99843.06;5007909;28;20761;-75
2022/10/22 09:06:46;;;;;;;6.22;1.60;;;;;;;17.81;100.00;99837.88;5026141;28;20029;-75
2022/10/22 09:09:34;;;;;;;17.23;2.78;;;;;;;18.94;100.00;99838.53;5011583;28;20027;-76
2022/10/22 09:12:23;;;;;;;7.13;1.70;;;;;;;19.64;100.00;99844.34;5011703;28;20014;-77
2022/10/22 09:14:55;;;;;;;15.60;3.08;;;;;;;20.12;100.00;99849.56;5019512;28;20018;-76
2022/10/22 09:18:01;;;;;;;14.77;3.45;;;;;;;20.52;100.00;99843.34;5021076;28;20038;-76
2022/10/22 09:21:02;;;;;;;18.02;3.15;;;;;;;22.36;99.49;99860.59;5012032;28;20018;-75
2022/10/22 09:23:53;;;;;;;16.13;2.55;;;;;;;23.22;91.15;99844.25;4998032;28;20586;-75
2022/10/22 09:26:25;;;;;;;8.10;1.45;;;;;;;23.47;90.80;99856.75;5012371;28;20026;-76
2022/10/22 09:29:01;;;;;;;8.75;1.98;;;;;;;22.09;93.48;99846.38;5027746;28;20046;-76
2022/10/22 09:31:44;;;;;;;15.00;2.63;;;;;;;21.06;98.52;99845.84;5021218;28;20054;-77
2022/10/22 09:43:13;;;;;;;11.32;2.00;;;;;;;18.94;100.00;99856.00;5026950;28;19909;-74
2022/10/22 09:45:50;;;;;;;10.45;2.15;;;;;;;18.34;100.00;99855.16;5023286;28;20025;-75
2022/10/22 09:48:40;;;;;;;6.60;2.10;;;;;;;17.84;100.00;99853.81;5035766;28;20018;-76
2022/10/22 09:51:58;;;;;;;7.32;1.60;;;;;;;17.58;100.00;99857.44;5028912;28;20022;-76
2022/10/22 09:54:41;;;;;;;11.50;2.33;;;;;;;17.92;100.00;99864.09;5037209;28;20022;-76
2022/10/22 09:57:20;;;;;;;12.80;2.35;;;;;;;18.51;100.00;99854.25;5026719;28;20648;-74
2022/10/22 09:59:56;;;;;;;8.25;1.80;;;;;;;18.61;100.00;99853.88;5033775;28;20105;-75
2022/10/22 10:02:27;;;;;;;8.55;1.48;;;;;;;18.82;100.00;99858.63;5025654;28;20030;-73
2022/10/22 10:05:05;;;;;;;15.45;2.75;;;;;;;18.70;100.00;99858.56;5034740;28;20091;-74
2022/10/22 10:07:56;;;;;;;11.38;2.50;;;;;;;19.21;100.00;99855.81;5038735;28;20494;-74
2022/10/22 10:11:49;;;;;;;;;;;;;;;;;;;;;
2022/10/22 10:14:26;;;;;;;17.65;2.13;;;;;;;20.30;100.00;99858.50;4997258;28;20030;-75
2022/10/22 10:17:01;;;;;;;22.02;2.63;;;;;;;21.99;95.56;99868.34;5000354;28;20030;-76
2022/10/22 10:19:59;;;;;;;17.42;2.28;;;;;;;22.24;89.39;99863.41;5030342;28;20120;-78
2022/10/22 10:22:27;;;;;;;17.13;2.35;;;;;;;21.54;86.59;99870.31;5024853;28;20018;-75
2022/10/22 10:25:32;;;;;;;15.50;2.42;;;;;;;21.23;85.66;99863.41;5026189;28;20165;-76
2022/10/22 10:28:38;;;;;;;17.17;2.40;;;;;;;22.56;84.90;99866.22;5047065;28;20017;-75
2022/10/22 10:35:13;;;;;;;16.23;2.63;;;;;;;23.94;76.13;99879.22;5041158;28;20045;-76
2022/10/22 10:38:03;;;;;;;16.95;2.72;;;;;;;25.04;77.46;99878.63;4996799;28;20042;-75
2022/10/22 10:44:16;;;;;;;21.45;2.72;;;;;;;25.63;77.24;99883.81;5051910;28;20097;-77
2022/10/22 10:46:55;;;;;;;12.02;1.75;;;;;;;25.13;71.52;99876.38;5045702;28;20146;-74
2022/10/22 10:49:28;;;;;;;11.13;2.10;;;;;;;24.73;70.16;99875.78;5022370;28;20033;-74
2022/10/22 10:52:14;;;;;;;10.43;2.30;;;;;;;22.76;71.05;99884.63;5030657;28;20021;-74
2022/10/22 10:54:51;;;;;;;13.63;1.55;;;;;;;21.36;76.34;99870.56;5051575;28;20035;-74
2022/10/22 10:57:47;;;;;;;13.65;2.60;;;;;;;21.04;79.59;99873.19;5039091;28;20044;-74
2022/10/22 11:00:26;;;;;;;15.93;1.80;;;;;;;21.74;78.51;99874.88;5051809;28;20168;-73
2022/10/22 11:02:57;;;;;;;18.45;1.90;;;;;;;22.07;78.66;99870.97;5025346;28;20032;-73
2022/10/22 11:05:50;;;;;;;10.85;2.22;;;;;;;21.12;77.53;99868.66;5062287;28;20033;-73
2022/10/22 11:08:44;;;;;;;12.95;1.63;;;;;;;21.33;77.50;99862.91;5035652;28;20024;-73
2022/10/22 11:11:50;;;;;;;14.32;1.90;;;;;;;22.96;79.94;99862.41;5043990;28;20059;-71
2022/10/22 11:14:31;;;;;;;8.50;1.80;;;;;;;22.58;74.01;99863.91;5042481;28;20041;-73
2022/10/22 11:17:17;;;;;;;10.13;1.63;;;;;;;22.45;75.42;99864.00;5048629;28;20040;-73
2022/10/22 11:19:54;;;;;;;12.77;2.10;;;;;;;22.06;72.51;99866.53;5036199;28;20029;-72
2022/10/22 11:22:38;;;;;;;7.72;1.23;;;;;;;23.14;76.73;99871.19;5040244;28;20094;-74
2022/10/22 11:25:20;;;;;;;10.43;2.15;;;;;;;23.31;70.74;99853.22;5022746;28;20033;-73
2022/10/22 11:27:56;;;;;;;11.18;1.98;;;;;;;22.36;71.56;99859.78;5041797;28;20033;-73
2022/10/22 11:30:24;;;;;;;7.35;1.40;;;;;;;21.59;72.79;99851.38;5031536;28;20479;-73
2022/10/22 11:32:56;;;;;;;11.25;2.40;;;;;;;22.07;79.61;99848.69;5049743;28;20163;-74
2022/10/22 11:35:33;;;;;;;7.65;2.20;;;;;;;22.61;72.82;99855.63;5042010;28;20470;-75
2022/10/22 11:38:00;;;;;;;8.82;1.88;;;;;;;22.52;74.86;99851.44;5045250;28;20028;-72
2022/10/22 11:40:34;;;;;;;9.82;2.15;;;;;;;22.09;75.19;99857.50;5033482;28;20017;-73
2022/10/22 11:43:28;;;;;;;8.30;1.25;;;;;;;21.32;74.25;99858.53;5043049;28;20036;-73
2022/10/22 11:46:14;;;;;;;12.50;2.45;;;;;;;20.49;73.12;99860.72;5039286;28;20020;-72
2022/10/22 11:48:41;;;;;;;6.53;1.75;;;;;;;19.66;76.34;99858.66;5043056;28;20016;-72
2022/10/22 11:51:30;;;;;;;12.20;1.60;;;;;;;19.17;81.73;99858.44;5019402;28;20040;-73
2022/10/22 11:53:57;;;;;;;11.27;1.38;;;;;;;19.16;81.20;99856.84;5043754;28;20017;-74
2022/10/22 11:56:25;;;;;;;6.25;1.30;;;;;;;18.82;80.82;99862.25;5033911;28;20065;-74
2022/10/22 11:58:54;;;;;;;6.03;1.52;;;;;;;18.36;80.14;99860.38;5034299;28;20480;-73
2022/10/22 12:01:40;;;;;;;4.90;1.10;;;;;;;17.93;78.76;99860.19;5051118;28;20100;-74
2022/10/22 12:04:38;;;;;;;7.05;1.50;;;;;;;17.50;80.62;99866.56;5021911;28;20106;-73
2022/10/22 12:07:26;;;;;;;7.75;1.60;;;;;;;17.42;83.18;99859.06;5036691;28;20108;-73
2022/10/22 12:09:52;;;;;;;7.15;1.65;;;;;;;18.39;84.33;99868.00;5042182;28;20188;-72
2022/10/22 12:12:19;;;;;;;3.45;0.98;;;;;;;19.21;83.12;99853.84;5028969;28;20101;-72
2022/10/22 12:14:55;;;;;;;9.27;1.20;;;;;;;20.73;78.44;99860.75;5066188;28;20454;-73
2022/10/22 12:17:21;;;;;;;8.82;1.92;;;;;;;22.86;73.58;99855.41;5041104;28;20092;-73
2022/10/22 12:20:11;;;;;;;4.43;1.00;;;;;;;25.11;71.62;99856.34;5044992;28;20021;-71
2022/10/22 12:22:37;;;;;;;8.15;1.63;;;;;;;28.01;62.30;99867.53;5050918;28;20032;-75
2022/10/22 12:25:24;;;;;;;4.95;1.40;;;;;;;29.00;63.32;99858.69;5036343;28;20028;-72
2022/10/22 12:27:56;;;;;;;6.55;1.33;;;;;;;28.16;59.07;99857.09;5036514;28;20430;-74
2022/10/22 12:30:27;;;;;;;5.70;1.30;;;;;;;28.18;63.89;99859.50;5062598;28;20546;-74
2022/10/22 12:32:56;;;;;;;4.68;1.15;;;;;;;29.46;60.36;99858.97;5045163;28;20053;-73
2022/10/22 12:35:34;;;;;;;6.07;1.50;;;;;;;28.92;62.06;99853.47;5053815;28;20505;-72